Time;durP1;ratioP1;P1;durP2;ratioP2;P2;SDS_P1;SDS_P2;PMS_P1;PMS_P2;Temp;Humidity;BMP_temperature;BMP_pressure;BME280_temperature;BME280_humidity;BME280_pressure;Samples;Min_cycle;Max_cycle;Signal;HPM_P1;HPM_P2
2024/02/16 00:00:18;;;;;;;;;85.67;64.67;;;;;6.40;100.00;100312.66;6302299;20;3648268;-42
2024/02/16 00:02:48;;;;;;;;;80.00;62.67;;;;;6.48;100.00;100311.50;6268706;20;3615897;-42
2024/02/16 00:05:18;;;;;;;;;85.00;69.00;;;;;6.23;100.00;100311.44;6300994;20;3660697;-44
2024/02/16 00:07:47;;;;;;;;;82.00;63.00;;;;;6.37;100.00;100317.19;6270453;20;3648160;-43
2024/02/16 00:10:19;;;;;;;;;82.00;61.33;;;;;6.14;100.00;100314.44;6304304;20;3653773;-44
2024/02/16 00:12:48;;;;;;;;;84.00;63.33;;;;;6.19;100.00;100320.47;6304973;20;3631616;-42
2024/02/16 00:15:18;;;;;;;;;86.00;63.33;;;;;6.54;100.00;100313.06;6301783;20;3650407;-42
2024/02/16 00:17:48;;;;;;;;;82.33;62.33;;;;;6.43;100.00;100312.56;6271201;20;3630550;-42
2024/02/16 00:20:21;;;;;;;;;75.33;57.00;;;;;6.19;100.00;100317.81;6303822;20;3648199;-43
2024/02/16 00:22:51;;;;;;;;;77.67;60.67;;;;;6.49;100.00;100310.56;6305050;20;2857789;-41
2024/02/16 00:25:20;;;;;;;;;77.00;59.67;;;;;5.94;100.00;100315.94;6303588;20;2873378;-43
2024/02/16 00:27:53;;;;;;;;;75.67;59.33;;;;;6.05;100.00;100309.38;6299956;20;3633660;-41
2024/02/16 00:30:23;;;;;;;;;76.67;59.00;;;;;6.07;100.00;100312.88;6301999;20;3648199;-42
2024/02/16 00:32:52;;;;;;;;;78.33;60.00;;;;;6.24;100.00;100304.31;6303956;20;3627524;-42
2024/02/16 00:35:23;;;;;;;;;80.67;59.67;;;;;6.40;100.00;100310.00;6302865;20;3638157;-41
2024/02/16 00:37:52;;;;;;;;;78.33;59.00;;;;;6.10;100.00;100310.09;6305146;20;3652423;-42
2024/02/16 00:40:22;;;;;;;;;78.67;60.33;;;;;6.05;100.00;100309.38;6303505;20;3616960;-41
2024/02/16 00:42:52;;;;;;;;;79.00;61.00;;;;;5.97;100.00;100301.63;6302754;20;3599306;-44
2024/02/16 00:45:22;;;;;;;;;78.67;58.00;;;;;6.08;100.00;100303.94;6298496;20;3659684;-43
2024/02/16 00:47:51;;;;;;;;;78.00;60.00;;;;;6.20;100.00;100290.22;6303061;20;3618000;-42
2024/02/16 00:50:23;;;;;;;;;79.67;59.67;;;;;6.19;100.00;100285.81;6304179;20;3658654;-42
2024/02/16 00:52:52;;;;;;;;;81.00;60.33;;;;;6.22;100.00;100283.03;6304390;20;3634809;-43
2024/02/16 00:55:22;;;;;;;;;81.00;61.67;;;;;6.22;100.00;100284.84;6301013;20;3634693;-41
2024/02/16 00:57:51;;;;;;;;;74.67;60.00;;;;;6.28;100.00;100289.97;6301970;20;2868131;-43
2024/02/16 01:00:23;;;;;;;;;71.67;58.33;;;;;6.11;100.00;100282.56;6302291;20;2872349;-43
2024/02/16 01:02:53;;;;;;;;;75.33;59.00;;;;;6.01;100.00;100291.78;6295655;20;3623344;-42
2024/02/16 01:05:23;;;;;;;;;74.00;58.33;;;;;6.09;100.00;100289.72;6303180;20;3630478;-41
2024/02/16 01:07:52;;;;;;;;;75.33;58.00;;;;;6.06;100.00;100282.69;6302055;20;3634010;-42
2024/02/16 01:10:22;;;;;;;;;74.33;58.67;;;;;6.47;100.00;100295.53;6303189;20;2863929;-44
2024/02/16 01:12:54;;;;;;;;;78.67;61.00;;;;;6.02;100.00;100296.16;6304573;20;3654416;-44
2024/02/16 01:15:24;;;;;;;;;75.00;59.33;;;;;6.08;100.00;100298.63;6301639;20;3622224;-41
2024/02/16 01:17:54;;;;;;;;;78.33;59.67;;;;;6.55;100.00;100298.78;6302045;20;3643023;-42
2024/02/16 01:20:24;;;;;;;;;73.33;59.00;;;;;6.94;100.00;100291.16;6302606;20;2872272;-41
2024/02/16 01:22:53;;;;;;;;;75.67;59.33;;;;;6.93;99.94;100297.44;6306011;20;2877701;-43
2024/02/16 01:25:23;;;;;;;;;84.67;62.00;;;;;6.63;100.00;100304.72;6306466;20;3646243;-41
2024/02/16 01:27:52;;;;;;;;;73.00;58.33;;;;;6.72;100.00;100296.41;6273620;20;2869818;-41
2024/02/16 01:30:22;;;;;;;;;76.67;60.33;;;;;6.62;100.00;100300.31;6307445;20;3623281;-41
2024/02/16 01:32:52;;;;;;;;;76.33;58.67;;;;;6.64;100.00;100289.63;6308361;20;3624327;-41
2024/02/16 01:35:21;;;;;;;;;78.33;60.67;;;;;6.15;100.00;100292.16;6306958;20;2877461;-42
2024/02/16 01:37:51;;;;;;;;;77.67;60.00;;;;;6.31;100.00;100288.06;6308321;20;3622149;-42
2024/02/16 01:40:20;;;;;;;;;80.33;59.33;;;;;6.01;100.00;100278.44;6305790;20;3655661;-41
2024/02/16 01:42:50;;;;;;;;;74.67;58.33;;;;;6.06;100.00;100289.81;6302789;20;3631645;-40
2024/02/16 01:45:20;;;;;;;;;79.00;61.00;;;;;6.53;100.00;100284.63;6307297;20;3618120;-44
2024/02/16 01:47:52;;;;;;;;;75.33;59.33;;;;;6.42;100.00;100285.00;6309261;20;3629489;-42
2024/02/16 01:50:22;;;;;;;;;76.33;60.33;;;;;5.94;100.00;100281.28;6303652;20;3611868;-41
2024/02/16 01:52:52;;;;;;;;;81.33;63.00;;;;;5.72;100.00;100257.13;6303985;20;3631669;-42
2024/02/16 01:55:22;;;;;;;;;81.00;61.00;;;;;5.92;100.00;100272.47;6306226;20;3643121;-42
2024/02/16 01:57:52;;;;;;;;;81.33;61.67;;;;;5.86;100.00;100272.66;6306413;20;3625431;-42
2024/02/16 02:00:22;;;;;;;;;84.00;61.33;;;;;5.83;100.00;100280.75;6307301;20;3636768;-42
2024/02/16 02:02:52;;;;;;;;;84.67;61.00;;;;;5.75;100.00;100279.25;6305346;20;3647174;-43
2024/02/16 02:05:21;;;;;;;;;79.33;61.00;;;;;5.76;100.00;100284.53;6307693;20;3647181;-41
2024/02/16 02:07:49;;;;;;;;;73.00;59.00;;;;;6.32;100.00;100284.47;6303411;20;2505127;-43
2024/02/16 02:10:19;;;;;;;;;81.67;60.33;;;;;6.46;100.00;100275.13;6275897;20;3653406;-41
2024/02/16 02:12:49;;;;;;;;;80.00;63.00;;;;;5.90;100.00;100276.97;6306365;20;3625303;-42
2024/02/16 02:15:19;;;;;;;;;80.33;62.00;;;;;6.12;100.00;100273.63;6305052;20;3633578;-42
2024/02/16 02:17:48;;;;;;;;;83.00;62.33;;;;;6.27;100.00;100272.22;6307803;20;3644157;-40
2024/02/16 02:20:18;;;;;;;;;80.33;59.00;;;;;5.81;100.00;100279.91;6307164;20;3630510;-42
2024/02/16 02:22:48;;;;;;;;;89.33;73.33;;;;;5.88;100.00;100272.59;6304518;20;3662760;-41
2024/02/16 02:25:17;;;;;;;;;83.00;62.33;;;;;6.14;100.00;100274.44;6303068;20;3640871;-42
2024/02/16 02:27:47;;;;;;;;;85.67;63.33;;;;;6.08;100.00;100277.28;6306518;20;3651421;-42
2024/02/16 02:30:17;;;;;;;;;82.67;63.33;;;;;5.86;100.00;100272.66;6304832;20;3633989;-42
2024/02/16 02:32:47;;;;;;;;;87.00;68.67;;;;;5.71;100.00;100274.03;6305902;20;3676290;-43
2024/02/16 02:35:18;;;;;;;;;84.67;64.00;;;;;5.62;100.00;100271.66;6270537;20;3649727;-41
2024/02/16 02:37:47;;;;;;;;;81.00;63.00;;;;;5.97;100.00;100268.78;6269239;20;3637872;-42
2024/02/16 02:40:17;;;;;;;;;85.33;64.00;;;;;5.73;100.00;100272.16;6303902;20;3631504;-43
2024/02/16 02:42:47;;;;;;;;;82.67;61.67;;;;;5.30;100.00;100270.00;6306591;20;3640874;-41
2024/02/16 02:45:16;;;;;;;;;88.33;65.00;;;;;5.19;100.00;100274.78;6303289;20;3658669;-40
2024/02/16 02:47:46;;;;;;;;;85.67;67.33;;;;;5.26;100.00;100273.66;6273292;20;3647154;-41
2024/02/16 02:50:16;;;;;;;;;85.33;64.33;;;;;5.43;100.00;100268.69;6303996;20;3626396;-42
2024/02/16 02:52:45;;;;;;;;;87.67;66.33;;;;;5.58;100.00;100266.47;6303491;20;3640910;-42
2024/02/16 02:55:16;;;;;;;;;83.33;65.00;;;;;5.60;100.00;100268.16;6303815;20;3627540;-41
2024/02/16 02:57:45;;;;;;;;;79.67;61.33;;;;;5.39;100.00;100263.50;6306509;20;3613806;-41
2024/02/16 03:00:15;;;;;;;;;84.00;61.00;;;;;5.37;100.00;100268.91;6305741;20;3663996;-41
2024/02/16 03:02:46;;;;;;;;;90.33;66.33;;;;;5.35;100.00;100273.41;6269758;20;3669030;-41
2024/02/16 03:05:18;;;;;;;;;87.67;67.67;;;;;5.36;100.00;100266.28;6273843;20;3660663;-44
2024/02/16 03:07:47;;;;;;;;;85.33;67.00;;;;;5.41;100.00;100267.88;6304602;20;3651325;-44
2024/02/16 03:10:21;;;;;;;;;82.67;63.00;;;;;5.28;100.00;100269.16;6303626;20;3631510;-44
2024/02/16 03:12:51;;;;;;;;;90.00;68.67;;;;;4.90;100.00;100271.19;6303538;20;3666964;-47
2024/02/16 03:15:21;;;;;;;;;87.67;73.00;;;;;5.06;100.00;100268.94;6268759;20;3644152;-45
2024/02/16 03:17:49;;;;;;;;;89.50;66.00;;;;;5.28;100.00;100270.03;6298311;20;2552438;-44
2024/02/16 03:20:19;;;;;;;;;85.67;64.00;;;;;5.26;100.00;100273.66;6271711;20;3655499;-45
2024/02/16 03:22:49;;;;;;;;;89.00;69.67;;;;;5.41;100.00;100270.53;6271488;20;3669046;-44
2024/02/16 03:25:19;;;;;;;;;84.00;62.67;;;;;4.92;100.00;100272.00;6270817;20;3652373;-47
2024/02/16 03:27:49;;;;;;;;;83.67;65.00;;;;;5.23;100.00;100277.28;6305697;20;3627437;-44
2024/02/16 03:30:19;;;;;;;;;83.00;62.67;;;;;5.18;100.00;100271.22;6304569;20;2874385;-44
2024/02/16 03:32:50;;;;;;;;;80.67;64.00;;;;;4.80;100.00;100275.03;6301228;20;3620040;-44
2024/02/16 03:35:20;;;;;;;;;81.00;62.33;;;;;4.97;100.00;100274.53;6303436;20;3623196;-44
2024/02/16 03:37:50;;;;;;;;;85.67;62.00;;;;;4.89;100.00;100273.88;6304773;20;3648179;-46
2024/02/16 03:40:20;;;;;;;;;89.00;62.33;;;;;4.91;100.00;100278.25;6304794;20;3654431;-46
2024/02/16 03:42:49;;;;;;;;;87.67;64.33;;;;;5.24;100.00;100275.53;6270803;20;3646205;-44
2024/02/16 03:45:19;;;;;;;;;81.67;63.67;;;;;5.09;100.00;100273.31;6301823;20;3628509;-44
2024/02/16 03:47:52;;;;;;;;;111.25;97.50;;;;;4.90;100.00;100273.84;6305731;20;3709628;-44
2024/02/16 03:50:23;;;;;;;;;94.33;77.33;;;;;5.00;100.00;100274.44;6270353;20;3678425;-46
2024/02/16 03:52:52;;;;;;;;;90.00;72.00;;;;;5.60;100.00;100270.81;6271913;20;3668132;-46
2024/02/16 03:55:22;;;;;;;;;113.00;88.00;;;;;5.63;100.00;100275.19;6268816;20;3690976;-48
2024/02/16 03:57:52;;;;;;;;;79.67;62.67;;;;;4.80;100.00;100272.38;6271554;20;3613975;-47
2024/02/16 04:00:21;;;;;;;;;89.33;66.00;;;;;4.66;100.00;100269.22;6304717;20;3653813;-44
2024/02/16 04:02:49;;;;;;;;;148.00;121.50;;;;;4.79;100.00;100270.59;6296559;20;1958686;-43
2024/02/16 04:05:19;;;;;;;;;218.00;178.75;;;;;4.81;100.00;100274.09;6270362;20;4481541;-44
2024/02/16 04:07:50;;;;;;;;;200.25;159.50;;;;;4.65;100.00;100280.78;6280330;20;2544062;-45
2024/02/16 04:10:17;;;;;;;;;217.00;168.50;;;;;4.71;100.00;100275.28;6301871;20;1958695;-45
2024/02/16 04:12:47;;;;;;;;;75.67;56.00;;;;;4.68;100.00;100280.69;6272170;20;3636882;-45
2024/02/16 04:15:16;;;;;;;;;83.67;65.33;;;;;4.44;100.00;100280.44;6298638;20;3625274;-44
2024/02/16 04:17:46;;;;;;;;;92.00;66.67;;;;;4.39;100.00;100288.53;6306013;20;3657575;-45
2024/02/16 04:20:17;;;;;;;;;95.33;73.00;;;;;4.30;100.00;100282.59;6303586;20;3684628;-46
2024/02/16 04:22:45;;;;;;;;;153.50;128.50;;;;;4.66;100.00;100288.72;6266162;20;1964994;-45
2024/02/16 04:25:15;;;;;;;;;99.33;83.00;;;;;4.94;100.00;100286.13;6265926;20;3669033;-44
2024/02/16 04:27:44;;;;;;;;;81.00;61.00;;;;;5.25;100.00;100294.09;6272717;20;3638841;-45
2024/02/16 04:30:14;;;;;;;;;78.33;60.33;;;;;5.20;100.00;100289.81;6303153;20;3626422;-44
2024/02/16 04:32:44;;;;;;;;;77.67;62.00;;;;;5.15;100.00;100289.09;6304924;20;3635726;-43
2024/02/16 04:35:14;;;;;;;;;86.33;64.33;;;;;4.80;100.00;100288.31;6300934;20;3650359;-47
2024/02/16 04:37:44;;;;;;;;;87.33;64.67;;;;;4.32;100.00;100291.41;6304389;20;3656627;-44
2024/02/16 04:40:14;;;;;;;;;83.00;63.33;;;;;3.93;100.00;100284.41;6303534;20;3634770;-45
2024/02/16 04:42:43;;;;;;;;;83.00;62.00;;;;;3.97;100.00;100295.81;6304227;20;3639877;-47
2024/02/16 04:45:13;;;;;;;;;86.33;63.33;;;;;3.87;100.00;100288.97;6301965;20;3651511;-45
2024/02/16 04:47:43;;;;;;;;;79.00;60.67;;;;;3.80;100.00;100298.03;6303582;20;3618120;-46
2024/02/16 04:50:13;;;;;;;;;82.67;61.00;;;;;4.52;100.00;100294.41;6304184;20;3645105;-46
2024/02/16 04:52:43;;;;;;;;;83.67;62.67;;;;;4.47;100.00;100298.97;6302947;20;3638907;-46
2024/02/16 04:55:13;;;;;;;;;80.33;60.67;;;;;3.86;100.00;100297.88;6301546;20;2886946;-47
2024/02/16 04:57:43;;;;;;;;;76.33;59.33;;;;;3.96;100.00;100299.41;6304475;20;3628416;-48
2024/02/16 05:00:13;;;;;;;;;85.00;64.00;;;;;4.43;100.00;100297.31;6309480;20;2880690;-47
2024/02/16 05:02:42;;;;;;;;;69.00;56.00;;;;;4.16;100.00;100299.78;6305756;20;2874309;-44
2024/02/16 05:05:12;;;;;;;;;83.00;61.00;;;;;3.58;100.00;100293.22;6276548;20;3638926;-45
2024/02/16 05:07:50;;;;;;;;;85.00;62.33;;;;;3.66;100.00;100301.91;6307903;20;3662793;-44
2024/02/16 05:10:19;;;;;;;;;77.33;59.33;;;;;3.41;100.00;100306.88;6274476;20;3624355;-45
2024/02/16 05:12:49;;;;;;;;;80.00;58.67;;;;;3.76;100.00;100306.97;6308826;20;3647314;-45
2024/02/16 05:15:18;;;;;;;;;64.33;48.00;;;;;3.76;100.00;100306.97;6307683;20;2885885;-45
2024/02/16 05:17:49;;;;;;;;;76.00;55.33;;;;;4.04;100.00;100309.84;6309827;20;3655480;-47
2024/02/16 05:20:19;;;;;;;;;81.33;60.00;;;;;4.14;100.00;100306.03;6308686;20;3661714;-43
2024/02/16 05:22:49;;;;;;;;;79.00;59.67;;;;;3.02;100.00;100304.16;6310073;20;3638911;-45
2024/02/16 05:25:19;;;;;;;;;76.67;58.67;;;;;3.07;100.00;100301.41;6306053;20;3630619;-44
2024/02/16 05:27:49;;;;;;;;;72.00;57.67;;;;;3.39;100.00;100308.69;6307392;20;2878420;-44
2024/02/16 05:30:19;;;;;;;;;82.00;60.33;;;;;3.62;100.00;100318.78;6307873;20;3653364;-44
2024/02/16 05:32:49;;;;;;;;;80.33;57.33;;;;;4.04;100.00;100316.03;6307607;20;3645038;-45
2024/02/16 05:35:18;;;;;;;;;78.00;61.00;;;;;2.89;100.00;100309.75;6305558;20;3635667;-44
2024/02/16 05:37:51;;;;;;;;;81.00;61.33;;;;;2.91;100.00;100313.25;6308473;20;3650331;-46
2024/02/16 05:40:30;;;;;;;;;80.00;59.00;;;;;3.04;100.00;100317.41;6306839;20;3641925;-46
2024/02/16 05:43:00;;;;;;;;;81.33;59.33;;;;;3.11;100.00;100313.72;6308511;20;3656586;-43
2024/02/16 05:45:30;;;;;;;;;78.67;57.33;;;;;2.67;100.00;100311.97;6304819;20;3648698;-43
2024/02/16 05:47:59;;;;;;;;;83.67;59.67;;;;;2.56;100.00;100315.69;6308135;20;3658576;-45
2024/02/16 05:50:30;;;;;;;;;83.67;61.67;;;;;2.66;100.00;100319.06;6306890;20;2898328;-47
2024/02/16 05:53:00;;;;;;;;;74.00;59.00;;;;;2.62;100.00;100314.69;6307588;20;2879527;-44
2024/02/16 05:55:29;;;;;;;;;83.67;65.00;;;;;2.75;100.00;100315.34;6308142;20;3628383;-43
2024/02/16 05:57:59;;;;;;;;;87.33;64.00;;;;;2.97;100.00;100323.72;6307683;20;3653374;-44
2024/02/16 06:00:33;;;;;;;;;80.33;58.33;;;;;3.19;100.00;100319.75;6305924;20;3642017;-43
2024/02/16 06:03:02;;;;;;;;;81.00;61.00;;;;;2.62;100.00;100330.59;6303814;20;3641915;-43
2024/02/16 06:05:33;;;;;;;;;79.00;61.00;;;;;2.57;100.00;100325.38;6309417;20;3625635;-44
2024/02/16 06:08:03;;;;;;;;;90.33;68.67;;;;;2.53;100.00;100330.78;6309769;20;3632564;-44
2024/02/16 06:10:33;;;;;;;;;86.67;66.00;;;;;2.49;100.00;100329.09;6304820;20;2873212;-45
2024/02/16 06:13:03;;;;;;;;;94.00;69.00;;;;;2.65;100.00;100327.88;6306410;20;3669044;-43
2024/02/16 06:15:37;;;;;;;;;101.00;71.50;;;;;3.07;100.00;100339.44;6308874;20;3628395;-44
2024/02/16 06:18:06;;;;;;;;;79.33;60.67;;;;;2.97;100.00;100342.31;6308298;20;2880618;-44
2024/02/16 06:20:36;;;;;;;;;83.33;62.00;;;;;3.27;100.00;100344.34;6306118;20;3657769;-44
2024/02/16 06:23:06;;;;;;;;;65.00;54.00;;;;;4.39;100.00;100351.47;6275011;20;2872291;-45
2024/02/16 06:25:35;;;;;;;;;81.33;63.00;;;;;4.23;100.00;100350.09;6275358;20;3631559;-44
2024/02/16 06:28:05;;;;;;;;;75.67;57.33;;;;;3.41;100.00;100349.34;6308741;20;2878555;-44
2024/02/16 06:30:35;;;;;;;;;77.00;61.00;;;;;5.69;100.00;100365.59;6306765;20;3626332;-45
2024/02/16 06:33:05;;;;;;;;;77.00;59.33;;;;;8.63;83.15;100371.81;6305750;20;3615937;-45
2024/02/16 06:35:34;;;;;;;;;98.67;86.33;;;;;8.17;78.35;100373.72;6306317;20;3661890;-47
2024/02/16 06:38:04;;;;;;;;;117.50;99.00;;;;;7.68;79.57;100364.00;6278241;20;4454507;-44
2024/02/16 06:40:35;;;;;;;;;135.00;120.00;;;;;8.14;79.32;100370.22;6271366;20;4475258;-45
2024/02/16 06:43:05;;;;;;;;;88.00;70.00;;;;;9.31;71.24;100373.28;6274439;20;3682607;-44
2024/02/16 06:45:35;;;;;;;;;84.67;66.67;;;;;9.49;71.44;100378.75;6274371;20;3669023;-44
2024/02/16 06:48:06;;;;;;;;;84.33;67.33;;;;;7.24;79.34;100369.25;6275302;20;3669037;-44
2024/02/16 06:50:36;;;;;;;;;74.67;56.67;;;;;8.24;75.47;100376.09;6274142;20;3630543;-47
2024/02/16 06:53:06;;;;;;;;;67.67;51.33;;;;;8.21;77.87;100378.00;6303375;20;3641968;-46
2024/02/16 06:55:35;;;;;;;;;61.67;49.67;;;;;8.25;78.48;100382.31;6304653;20;3622331;-44
2024/02/16 06:58:05;;;;;;;;;65.00;51.67;;;;;7.55;79.34;100384.13;6304868;20;3614919;-45
2024/02/16 07:00:35;;;;;;;;;66.67;52.67;;;;;8.30;76.84;100385.66;6306935;20;3631674;-44
2024/02/16 07:03:05;;;;;;;;;78.00;65.75;;;;;9.95;69.61;100390.00;6303473;20;4388935;-45
2024/02/16 07:05:35;;;;;;;;;72.67;60.33;;;;;9.27;69.45;100392.25;6307667;20;3626319;-44
2024/02/16 07:08:07;;;;;;;;;67.00;56.00;;;;;9.56;69.61;100393.63;6304235;20;2865988;-44
2024/02/16 07:10:36;;;;;;;;;69.33;54.33;;;;;10.79;60.86;100398.41;6308181;20;3620102;-45
2024/02/16 07:13:05;;;;;;;;;61.33;50.67;;;;;10.43;63.34;100399.34;6272384;20;3611743;-46
2024/02/16 07:15:34;;;;;;;;;67.67;52.67;;;;;8.61;70.94;100400.47;6308554;20;3614998;-51
2024/02/16 07:18:04;;;;;;;;;62.67;51.00;;;;;8.51;73.00;100398.19;6275975;20;3612899;-45
2024/02/16 07:20:33;;;;;;;;;62.67;50.00;;;;;8.54;71.64;100402.53;6307830;20;3623226;-47
2024/02/16 07:23:03;;;;;;;;;66.00;52.67;;;;;10.42;65.30;100406.50;6274017;20;3637762;-49
2024/02/16 07:25:32;;;;;;;;;68.67;53.00;;;;;13.69;52.50;100412.50;6310083;20;3601300;-48
2024/02/16 07:28:00;;;;;;;;;63.33;50.67;;;;;14.14;51.06;100420.41;6287627;20;3612152;-48
2024/02/16 07:30:30;;;;;;;;;65.00;52.67;;;;;13.87;51.71;100420.38;6276653;20;3623252;-45
2024/02/16 07:33:10;;;;;;;;;65.67;52.67;;;;;14.80;48.71;100418.84;6306770;20;3622253;-48
2024/02/16 07:35:39;;;;;;;;;57.67;47.00;;;;;12.91;51.56;100414.53;6276392;20;3623187;-48
2024/02/16 07:38:08;;;;;;;;;60.00;48.00;;;;;10.42;56.74;100406.50;6277280;20;3621130;-46
2024/02/16 07:40:37;;;;;;;;;64.00;51.00;;;;;6.56;80.27;100397.47;6275680;20;3620097;-46
2024/02/16 07:43:08;;;;;;;;;61.33;48.67;;;;;7.29;79.53;100392.25;6275304;20;3626332;-48
2024/02/16 07:45:37;;;;;;;;;64.00;52.00;;;;;7.07;81.70;100398.38;6308682;20;3621118;-45
2024/02/16 07:48:07;;;;;;;;;65.67;51.33;;;;;7.14;80.96;100389.22;6276089;20;2875438;-47
2024/02/16 07:50:37;;;;;;;;;62.67;49.00;;;;;7.41;79.58;100400.69;6302694;20;3620052;-46
2024/02/16 07:53:09;;;;;;;;;70.33;53.33;;;;;7.35;82.08;100392.03;6304335;20;3642104;-44
2024/02/16 07:55:39;;;;;;;;;69.33;54.33;;;;;7.73;79.25;100392.38;6305510;20;3622208;-46
2024/02/16 07:58:09;;;;;;;;;66.00;51.67;;;;;7.53;80.75;100390.47;6305471;20;3632546;-46
2024/02/16 08:00:39;;;;;;;;;66.00;52.00;;;;;7.18;81.71;100381.97;6302766;20;3627339;-45
2024/02/16 08:03:09;;;;;;;;;64.00;49.00;;;;;7.20;83.17;100389.00;6299592;20;3641953;-44
2024/02/16 08:05:38;;;;;;;;;63.00;51.00;;;;;7.32;78.41;100392.13;6307194;20;3602393;-47
2024/02/16 08:08:08;;;;;;;;;70.33;55.00;;;;;8.31;78.86;100384.72;6305985;20;3623174;-44
2024/02/16 08:10:37;;;;;;;;;62.00;49.67;;;;;8.27;76.19;100388.47;6306620;20;3610713;-47
2024/02/16 08:13:07;;;;;;;;;62.00;49.67;;;;;7.94;75.88;100386.19;6302168;20;3625504;-44
2024/02/16 08:15:36;;;;;;;;;55.00;45.00;;;;;8.16;75.59;100393.34;6306387;20;2865031;-45
2024/02/16 08:18:05;;;;;;;;;55.33;45.00;;;;;8.65;73.93;100389.56;6274940;20;2855197;-45
2024/02/16 08:20:36;;;;;;;;;64.67;49.33;;;;;7.73;75.96;100384.38;6307994;20;3625447;-44
2024/02/16 08:23:06;;;;;;;;;60.00;47.67;;;;;8.95;74.57;100390.06;6305516;20;3633667;-45
2024/02/16 08:25:35;;;;;;;;;65.67;52.00;;;;;8.45;75.10;100386.84;6307800;20;3632593;-46
2024/02/16 08:28:05;;;;;;;;;58.67;46.33;;;;;8.72;71.69;100390.19;6303348;20;3628942;-45
2024/02/16 08:30:35;;;;;;;;;53.00;44.00;;;;;8.66;69.14;100401.13;6308542;20;2868155;-44
2024/02/16 08:33:05;;;;;;;;;56.67;45.00;;;;;9.09;69.84;100393.94;6317738;20;3606017;-48
2024/02/16 08:35:35;;;;;;;;;52.33;40.33;;;;;8.86;67.45;100395.81;6287774;20;2861864;-45
2024/02/16 08:38:04;;;;;;;;;54.33;41.00;;;;;8.08;69.80;100394.56;6315970;20;2870723;-49
2024/02/16 08:40:34;;;;;;;;;58.00;46.00;;;;;9.24;68.40;100395.91;6318884;20;3616963;-48
2024/02/16 08:43:04;;;;;;;;;53.33;44.33;;;;;9.02;65.36;100401.38;6319857;20;3616943;-48
2024/02/16 08:45:34;;;;;;;;;55.00;44.33;;;;;8.28;66.18;100395.53;6284430;20;3619149;-49
2024/02/16 08:48:04;;;;;;;;;54.67;45.00;;;;;8.88;66.06;100401.13;6319441;20;2865933;-49
2024/02/16 08:50:34;;;;;;;;;57.33;44.33;;;;;8.82;67.24;100401.34;6316573;20;3621210;-47
2024/02/16 08:53:03;;;;;;;;;52.50;42.00;;;;;9.49;65.07;100413.59;6315797;20;2866950;-48
2024/02/16 08:55:33;;;;;;;;;54.00;43.00;;;;;9.13;63.52;100406.25;6286102;20;2865038;-50
2024/02/16 08:58:02;;;;;;;;;57.67;45.00;;;;;9.39;64.97;100408.63;6318321;20;3626428;-48
2024/02/16 09:00:31;;;;;;;;;50.00;41.50;;;;;9.19;64.93;100406.88;6314706;20;2851436;-49
2024/02/16 09:03:02;;;;;;;;;49.00;41.00;;;;;9.52;65.25;100408.09;6282119;20;2838831;-49
2024/02/16 09:05:31;;;;;;;;;51.00;41.00;;;;;9.45;61.72;100408.38;6285635;20;2855507;-48
2024/02/16 09:08:02;;;;;;;;;51.67;42.33;;;;;10.89;59.60;100411.31;6282671;20;2866012;-51
2024/02/16 09:10:30;;;;;;;;;48.00;39.00;;;;;9.85;61.35;100413.72;6315395;20;2863938;-47
2024/02/16 09:12:59;;;;;;;;;55.00;44.50;;;;;9.96;62.97;100416.75;6283290;20;2860688;-51
2024/02/16 09:15:29;;;;;;;;;53.33;43.00;;;;;9.42;63.97;100405.81;6284201;20;2873439;-49
2024/02/16 09:17:58;;;;;;;;;54.33;44.33;;;;;9.86;62.39;100413.63;6314805;20;3606542;-48
2024/02/16 09:20:27;;;;;;;;;42.00;36.00;;;;;9.54;64.05;100408.91;6317772;20;2844025;-50
2024/02/16 09:22:57;;;;;;;;;51.00;42.00;;;;;10.44;61.64;100410.00;6283028;20;2884677;-52
2024/02/16 09:25:27;;;;;;;;;59.00;47.00;;;;;9.96;62.26;100407.84;6317162;20;3620106;-48
2024/02/16 09:27:56;;;;;;;;;63.00;48.00;;;;;9.95;62.33;100406.09;6310353;20;3624283;-50
2024/02/16 09:30:26;;;;;;;;;48.00;39.00;;;;;9.71;62.16;100414.34;6312270;20;2862884;-51
2024/02/16 09:32:54;;;;;;;;;47.50;40.50;;;;;9.75;62.30;100410.59;6312542;20;2833749;-49
2024/02/16 09:35:23;;;;;;;;;47.00;40.00;;;;;9.64;63.30;100413.78;6282864;20;2841016;-50
2024/02/16 09:37:52;;;;;;;;;53.50;43.00;;;;;10.39;62.71;100413.84;6281526;20;2866954;-51
2024/02/16 09:40:23;;;;;;;;;50.00;40.67;;;;;10.12;59.99;100414.22;6279974;20;2851329;-50
2024/02/16 09:42:51;;;;;;;;;49.50;40.00;;;;;10.21;60.40;100416.44;6312662;20;2863995;-50
2024/02/16 09:45:23;;;;;;;;;48.67;41.33;;;;;10.98;59.83;100412.66;6274138;20;2861790;-50
2024/02/16 09:47:55;;;;;;;;;47.67;41.00;;;;;11.31;58.32;100414.53;6306167;20;2850287;-48
2024/02/16 09:50:32;;;;;;;;;47.00;39.67;;;;;11.00;58.11;100413.44;6304751;20;2857654;-47
2024/02/16 09:53:06;;;;;;;;;47.00;39.00;;;;;10.45;59.06;100421.59;6306182;20;2851558;-51
2024/02/16 09:55:35;;;;;;;;;45.50;37.00;;;;;10.76;58.53;100427.16;6302067;20;2858683;-47
2024/02/16 09:58:05;;;;;;;;;48.00;38.33;;;;;10.46;59.38;100420.66;6277514;20;3602348;-46
2024/02/16 10:00:33;;;;;;;;;46.00;37.50;;;;;10.42;59.98;100421.75;6275510;20;2844132;-48
2024/02/16 10:03:04;;;;;;;;;54.00;39.67;;;;;11.35;56.63;100425.03;6273895;20;3624226;-50
2024/02/16 10:05:34;;;;;;;;;56.67;42.00;;;;;10.88;56.79;100420.31;6303654;20;3616951;-48
2024/02/16 10:08:12;;;;;;;;;46.00;39.00;;;;;10.67;58.68;100416.03;6305204;20;2853472;-47
2024/02/16 10:10:41;;;;;;;;;47.50;39.50;;;;;10.59;59.22;100411.06;6275318;20;2852380;-48
2024/02/16 10:13:11;;;;;;;;;47.00;38.00;;;;;10.68;59.08;100413.25;6272388;20;2858722;-46
2024/02/16 10:15:41;;;;;;;;;51.67;41.00;;;;;11.06;57.78;100413.13;6274201;20;3623205;-46
2024/02/16 10:18:10;;;;;;;;;46.00;36.33;;;;;11.22;56.90;100410.50;6305516;20;2849250;-45
2024/02/16 10:20:41;;;;;;;;;48.33;40.33;;;;;11.81;56.15;100411.78;6302271;20;3612124;-50
2024/02/16 10:23:12;;;;;;;;;47.33;39.00;;;;;12.06;56.25;100407.78;6306183;20;2853406;-49
2024/02/16 10:25:40;;;;;;;;;45.00;36.67;;;;;10.93;57.35;100406.66;6307737;20;3590884;-47
2024/02/16 10:28:14;;;;;;;;;50.00;40.50;;;;;11.27;56.43;100402.19;6274964;20;2855600;-46
2024/02/16 10:30:44;;;;;;;;;45.00;37.00;;;;;11.15;56.93;100399.19;6275310;20;2842069;-47
2024/02/16 10:33:14;;;;;;;;;45.33;39.00;;;;;11.45;57.94;100403.88;6275408;20;2860292;-48
2024/02/16 10:35:44;;;;;;;;;42.33;37.33;;;;;11.03;57.67;100390.91;6312739;20;3585685;-49
2024/02/16 10:38:15;;;;;;;;;45.33;38.67;;;;;10.85;59.99;100387.34;6274911;20;2857638;-46
2024/02/16 10:40:44;;;;;;;;;48.00;40.00;;;;;10.66;59.26;100390.97;6312479;20;3606516;-46
2024/02/16 10:43:14;;;;;;;;;41.00;34.50;;;;;12.03;55.58;100390.00;6276994;20;2855527;-47
2024/02/16 10:45:45;;;;;;;;;45.00;38.00;;;;;12.08;55.10;100387.00;6272713;20;2840932;-46
2024/02/16 10:48:15;;;;;;;;;54.33;41.67;;;;;11.63;57.05;100380.50;6277756;20;2855568;-47
2024/02/16 10:50:45;;;;;;;;;47.00;39.00;;;;;12.08;57.21;100379.81;6308215;20;2859813;-48
2024/02/16 10:53:28;;;;;;;;;49.00;41.00;;;;;11.46;57.39;100373.38;6306878;20;2832734;-48
2024/02/16 10:55:59;;;;;;;;;46.00;38.50;;;;;11.57;58.11;100365.59;6276516;20;2855508;-48
2024/02/16 10:58:31;;;;;;;;;47.50;39.50;;;;;11.17;57.02;100365.06;6274630;20;2848238;-49
2024/02/16 11:01:11;;;;;;;;;44.00;38.00;;;;;12.15;55.92;100357.94;6273429;20;2860155;-45
2024/02/16 11:03:40;;;;;;;;;39.33;36.00;;;;;11.39;56.50;100354.00;6309542;20;3560083;-47
2024/02/16 11:06:18;;;;;;;;;42.67;34.33;;;;;12.15;54.48;100355.25;6309559;20;3595106;-46